aviador You're here:

KUZA Decoded Metar

ROCK HILL in SC, USA
Report Time2018-07-22 15:54:00
UTC Time2018-07-22 16:28:10
Flight Rules vfr VFR
WindVRB at 05 kt
Visibility9999 m
Phenomena:N/A
Clouds:Few 033 Hf
Expected CloudBase > 4,000 ft AGL from Temp-Dew spread
CeilingNone
Temp29°C (ISA +15)
Dew Point19°C (55% RH)
Heat Index30.3°C
QNH1009 hPa
Density Alt2,848 ft
Elevation663 ft
Report Wrong Elevation
Raw Report
METAR KUZA 221554Z AUTO VRB05KT 10SM FEW033 29/19 A2979 RMK AO2 SLP073
T02890194=

Extra information for KUZA:More info

Metar Taf Metar & Taf Last 4 Metars F.Rules Stats Wind Profile Meteogram Temp Stats Airport Information Weather charts Add Link Nearby VenuesMetar ALERT Operation Metar Decoded Social comments

AIRNAV info for KUZA